Time;durP1;ratioP1;P1;durP2;ratioP2;P2;SDS_P1;SDS_P2;PMS_P1;PMS_P2;Temp;Humidity;BMP_temperature;BMP_pressure;BME280_temperature;BME280_humidity;BME280_pressure;Samples;Min_cycle;Max_cycle;Signal;HPM_P1;HPM_P2
2021/09/23 00:01:48;;;;;;;16.40;4.22;;;27.90;90.00;;;;;;5124557;28;20087;-50
2021/09/23 00:04:32;;;;;;;27.70;4.03;;;27.80;90.00;;;;;;5124706;28;20051;-50
2021/09/23 00:07:02;;;;;;;23.42;4.13;;;27.90;90.10;;;;;;5124052;28;20015;-54
2021/09/23 00:09:30;;;;;;;62.63;7.15;;;27.80;90.20;;;;;;5124241;28;20024;-52
2021/09/23 00:11:57;;;;;;;68.50;7.78;;;27.80;90.20;;;;;;5123979;28;20012;-50
2021/09/23 00:14:24;;;;;;;86.40;8.18;;;27.80;90.20;;;;;;5123845;28;20083;-53
2021/09/23 00:16:51;;;;;;;66.93;7.85;;;27.80;90.30;;;;;;5124022;28;20020;-45
2021/09/23 00:19:18;;;;;;;54.78;7.22;;;27.80;90.30;;;;;;5124616;28;20026;-51
2021/09/23 00:21:45;;;;;;;42.55;5.72;;;27.80;90.40;;;;;;5127465;28;20012;-50
2021/09/23 00:24:12;;;;;;;43.20;4.90;;;27.80;90.40;;;;;;5128168;28;20368;-49
2021/09/23 00:26:39;;;;;;;29.77;4.40;;;27.90;90.40;;;;;;5127651;28;20019;-54
2021/09/23 00:29:06;;;;;;;25.10;3.78;;;27.80;90.50;;;;;;5128137;28;20028;-54
2021/09/23 00:31:34;;;;;;;24.23;3.25;;;27.80;90.50;;;;;;5127688;28;20031;-48
2021/09/23 00:34:01;;;;;;;21.60;3.45;;;27.80;90.60;;;;;;5127168;28;20081;-55
2021/09/23 00:36:30;;;;;;;26.77;3.75;;;27.80;90.60;;;;;;5109173;28;20085;-51
2021/09/23 00:38:57;;;;;;;24.50;4.28;;;27.80;90.60;;;;;;5127122;28;20061;-49
2021/09/23 00:41:24;;;;;;;27.50;5.88;;;27.80;90.60;;;;;;5127129;28;20011;-51
2021/09/23 00:43:51;;;;;;;29.73;5.63;;;27.80;90.60;;;;;;5127905;28;20027;-51
2021/09/23 00:46:18;;;;;;;26.42;6.45;;;27.80;90.70;;;;;;5127324;28;20023;-54
2021/09/23 00:48:49;;;;;;;26.85;6.60;;;27.80;90.80;;;;;;5127558;28;20031;-50
2021/09/23 00:51:18;;;;;;;21.63;5.22;;;27.70;91.10;;;;;;5127332;28;20018;-53
2021/09/23 00:53:45;;;;;;;18.42;4.75;;;27.70;90.80;;;;;;5109084;28;20027;-53
2021/09/23 00:56:13;;;;;;;16.30;3.75;;;27.80;90.80;;;;;;5127144;28;20016;-55
2021/09/23 00:58:40;;;;;;;13.25;4.20;;;27.80;90.90;;;;;;5127639;28;20027;-51
2021/09/23 01:01:07;;;;;;;13.70;3.80;;;27.80;90.90;;;;;;5127410;28;20071;-52
2021/09/23 01:03:35;;;;;;;9.68;3.25;;;27.70;90.90;;;;;;5127572;28;20047;-56
2021/09/23 01:06:02;;;;;;;10.05;3.58;;;27.80;91.00;;;;;;5127223;28;20026;-51
2021/09/23 01:08:29;;;;;;;10.77;3.45;;;27.70;90.90;;;;;;5127255;28;20028;-55
2021/09/23 01:10:56;;;;;;;12.68;3.42;;;27.70;91.10;;;;;;5127084;28;20074;-49
2021/09/23 01:13:24;;;;;;;9.13;3.20;;;27.70;90.90;;;;;;5108877;28;20034;-59
2021/09/23 01:15:51;;;;;;;11.00;3.15;;;27.70;91.00;;;;;;5126910;28;20037;-53
2021/09/23 01:18:18;;;;;;;6.95;3.40;;;27.70;90.90;;;;;;5127133;28;20030;-54
2021/09/23 01:20:46;;;;;;;11.25;3.83;;;27.70;90.90;;;;;;5126761;28;20012;-57
2021/09/23 01:23:14;;;;;;;9.07;2.90;;;27.70;90.90;;;;;;5126908;28;20068;-50
2021/09/23 01:25:40;;;;;;;9.45;2.90;;;27.70;90.90;;;;;;5126419;28;20030;-55
2021/09/23 01:28:07;;;;;;;9.07;3.55;;;27.70;90.90;;;;;;5126593;28;20320;-52
2021/09/23 01:30:34;;;;;;;11.30;3.50;;;27.70;90.90;;;;;;5108241;28;20028;-53
2021/09/23 01:33:01;;;;;;;10.63;3.55;;;27.70;91.00;;;;;;5108307;28;20042;-55
2021/09/23 01:35:28;;;;;;;13.00;4.40;;;27.70;90.90;;;;;;5126468;28;20208;-54
2021/09/23 01:37:55;;;;;;;9.93;3.70;;;27.70;90.90;;;;;;5126442;28;20023;-54
2021/09/23 01:40:22;;;;;;;6.65;3.38;;;27.70;90.90;;;;;;5126269;28;20015;-50
2021/09/23 01:42:49;;;;;;;9.02;3.38;;;27.70;90.90;;;;;;5126483;28;20027;-49
2021/09/23 01:45:16;;;;;;;6.82;2.80;;;27.60;90.90;;;;;;5126319;28;20024;-51
2021/09/23 01:47:42;;;;;;;9.90;2.28;;;27.70;90.80;;;;;;5126287;28;20030;-51
2021/09/23 01:50:10;;;;;;;3.63;2.40;;;27.70;90.80;;;;;;5108390;28;20023;-54
2021/09/23 01:52:37;;;;;;;7.55;2.17;;;27.70;90.80;;;;;;5126266;28;20027;-47
2021/09/23 01:55:04;;;;;;;5.15;2.20;;;27.70;90.80;;;;;;5126138;28;20011;-53
2021/09/23 01:57:31;;;;;;;3.72;1.90;;;27.60;90.80;;;;;;5107898;28;20092;-58
2021/09/23 01:59:58;;;;;;;8.25;1.48;;;27.60;90.80;;;;;;5126045;28;20056;-53
2021/09/23 02:02:25;;;;;;;3.30;1.40;;;27.60;90.90;;;;;;5126102;28;20229;-48
2021/09/23 02:04:54;;;;;;;4.15;1.40;;;27.60;91.00;;;;;;5126228;28;20019;-54
2021/09/23 02:07:22;;;;;;;2.70;1.30;;;27.50;90.90;;;;;;5125918;28;20043;-49
2021/09/23 02:09:49;;;;;;;8.35;1.85;;;27.50;91.00;;;;;;5125753;28;20011;-54
2021/09/23 02:12:20;;;;;;;4.60;2.20;;;27.50;91.00;;;;;;5125744;28;20098;-52
2021/09/23 02:14:47;;;;;;;5.95;1.98;;;27.60;90.90;;;;;;5125745;28;20041;-59
2021/09/23 02:17:14;;;;;;;3.35;1.73;;;27.50;91.00;;;;;;5125732;28;20026;-51
2021/09/23 02:19:40;;;;;;;2.08;1.40;;;27.50;90.90;;;;;;5107768;28;20061;-53
2021/09/23 02:22:07;;;;;;;6.55;1.75;;;27.50;90.90;;;;;;5125372;28;20018;-54
2021/09/23 02:24:34;;;;;;;3.15;1.17;;;27.60;90.90;;;;;;5125295;28;20291;-52
2021/09/23 02:27:00;;;;;;;3.53;1.10;;;27.50;90.90;;;;;;5125626;28;20023;-55
2021/09/23 02:29:27;;;;;;;5.80;1.20;;;27.50;91.00;;;;;;5126095;28;20022;-53
2021/09/23 02:31:54;;;;;;;4.38;0.93;;;27.50;91.00;;;;;;5125555;28;20020;-50
2021/09/23 02:34:20;;;;;;;5.03;1.35;;;27.50;91.00;;;;;;5125335;28;20036;-49
2021/09/23 02:36:47;;;;;;;2.15;1.00;;;27.40;91.00;;;;;;5125696;28;20023;-56
2021/09/23 02:39:14;;;;;;;7.55;0.90;;;27.50;91.00;;;;;;5125890;28;20261;-52
2021/09/23 02:41:41;;;;;;;4.57;0.80;;;27.40;91.10;;;;;;5124954;28;20071;-52
2021/09/23 02:44:07;;;;;;;7.10;0.82;;;27.40;91.10;;;;;;5125817;28;20027;-52
2021/09/23 02:46:34;;;;;;;4.55;0.88;;;27.40;91.20;;;;;;5125119;28;20028;-53
2021/09/23 02:49:01;;;;;;;4.45;1.00;;;27.40;91.20;;;;;;5125813;28;20051;-60
2021/09/23 02:51:28;;;;;;;3.20;0.80;;;27.40;91.20;;;;;;5125400;28;20047;-54
2021/09/23 02:53:54;;;;;;;3.40;0.63;;;27.40;91.20;;;;;;5107021;28;20255;-53
2021/09/23 02:56:21;;;;;;;4.00;1.05;;;27.40;91.20;;;;;;5125150;28;20015;-52
2021/09/23 02:58:50;;;;;;;3.28;0.63;;;27.40;91.20;;;;;;5107486;28;20043;-52
2021/09/23 03:01:18;;;;;;;1.73;0.70;;;27.40;91.20;;;;;;5125064;28;20011;-54
2021/09/23 03:03:45;;;;;;;3.00;0.98;;;27.40;91.20;;;;;;5125372;28;20073;-53
2021/09/23 03:06:12;;;;;;;4.22;0.55;;;27.40;91.10;;;;;;5125393;28;20015;-54
2021/09/23 03:08:39;;;;;;;3.03;0.77;;;27.40;91.10;;;;;;5125200;28;20075;-50
2021/09/23 03:11:05;;;;;;;5.03;0.73;;;27.40;91.10;;;;;;5124961;28;20076;-59
2021/09/23 03:13:32;;;;;;;3.20;0.60;;;27.40;91.00;;;;;;5125035;28;20028;-56
2021/09/23 03:15:59;;;;;;;4.82;0.80;;;27.40;91.00;;;;;;5124685;28;20008;-56
2021/09/23 03:18:25;;;;;;;4.45;0.90;;;27.40;91.00;;;;;;5125460;28;20470;-52
2021/09/23 03:20:52;;;;;;;4.65;1.40;;;27.40;91.00;;;;;;5124710;28;20020;-46
2021/09/23 03:23:19;;;;;;;5.13;1.20;;;27.40;91.10;;;;;;5124802;28;20051;-50
2021/09/23 03:25:45;;;;;;;7.90;1.13;;;27.40;91.10;;;;;;5124642;28;20031;-48
2021/09/23 03:28:13;;;;;;;5.55;0.65;;;27.30;91.10;;;;;;5124864;28;20019;-50
2021/09/23 03:30:40;;;;;;;6.22;0.90;;;27.40;91.10;;;;;;5124291;28;20015;-50
2021/09/23 03:33:07;;;;;;;4.95;0.90;;;27.30;91.00;;;;;;5124297;28;20055;-55
2021/09/23 03:35:35;;;;;;;3.08;0.60;;;27.30;91.00;;;;;;5124617;28;20012;-47
2021/09/23 03:38:02;;;;;;;5.45;0.70;;;27.30;91.00;;;;;;5124575;28;20062;-50
2021/09/23 03:40:29;;;;;;;3.35;0.70;;;27.30;91.00;;;;;;5124548;28;20018;-52
2021/09/23 03:42:56;;;;;;;3.33;0.65;;;27.30;91.10;;;;;;5124989;28;20046;-47
2021/09/23 03:45:25;;;;;;;2.53;0.57;;;27.30;91.10;;;;;;5124250;28;20107;-53
2021/09/23 03:47:52;;;;;;;2.80;0.57;;;27.30;91.10;;;;;;5124574;28;20034;-50
2021/09/23 03:50:19;;;;;;;6.57;1.83;;;27.30;91.00;;;;;;5124546;28;20019;-55
2021/09/23 03:52:47;;;;;;;3.20;1.40;;;27.30;91.00;;;;;;5124492;28;20236;-56
2021/09/23 03:55:15;;;;;;;3.97;1.33;;;27.30;91.00;;;;;;5126862;28;20011;-52
2021/09/23 03:57:44;;;;;;;3.38;1.30;;;27.30;91.10;;;;;;5128731;28;20020;-46
2021/09/23 04:00:12;;;;;;;4.05;1.00;;;27.20;91.10;;;;;;5128435;28;20035;-48
2021/09/23 04:02:40;;;;;;;3.50;1.20;;;27.30;91.10;;;;;;5128407;28;20097;-52
2021/09/23 04:05:07;;;;;;;3.45;1.00;;;27.20;91.40;;;;;;5128357;28;20043;-48
2021/09/23 04:07:34;;;;;;;2.85;0.90;;;27.20;91.20;;;;;;5128053;28;20035;-50
2021/09/23 04:10:00;;;;;;;3.75;0.82;;;27.20;91.30;;;;;;5128108;28;20015;-50
2021/09/23 04:12:27;;;;;;;2.78;0.90;;;27.10;91.30;;;;;;5128007;28;20219;-47
2021/09/23 04:14:53;;;;;;;5.60;0.65;;;27.20;91.30;;;;;;5127911;28;20023;-48
2021/09/23 04:17:21;;;;;;;3.85;0.80;;;27.20;91.30;;;;;;5128186;28;20023;-46
2021/09/23 04:19:47;;;;;;;3.17;0.70;;;27.20;91.30;;;;;;5127884;28;20372;-50
2021/09/23 04:22:14;;;;;;;5.55;0.88;;;27.20;91.20;;;;;;5127833;28;20204;-52
2021/09/23 04:24:40;;;;;;;2.40;0.75;;;27.20;91.20;;;;;;5127939;28;20012;-51
2021/09/23 04:27:07;;;;;;;2.42;0.50;;;27.20;91.20;;;;;;5125348;28;20297;-51
2021/09/23 04:29:34;;;;;;;4.47;0.80;;;27.20;91.10;;;;;;5121791;28;20064;-46
2021/09/23 04:32:00;;;;;;;6.07;0.68;;;27.20;91.10;;;;;;5127830;28;20028;-49
2021/09/23 04:34:27;;;;;;;5.18;0.63;;;27.20;91.20;;;;;;5127482;28;20264;-52
2021/09/23 04:36:54;;;;;;;3.00;0.55;;;27.20;91.20;;;;;;5126976;28;20072;-50
2021/09/23 04:39:20;;;;;;;5.57;0.65;;;27.20;91.20;;;;;;5119650;28;20011;-50
2021/09/23 04:41:47;;;;;;;4.55;0.60;;;27.20;91.10;;;;;;5127517;28;20008;-47
2021/09/23 04:44:13;;;;;;;3.10;0.68;;;27.20;91.40;;;;;;5127999;28;20024;-49
2021/09/23 04:46:40;;;;;;;5.57;0.80;;;27.20;91.20;;;;;;5127286;28;20019;-49
2021/09/23 04:49:07;;;;;;;2.30;0.50;;;27.20;91.20;;;;;;5127838;28;20061;-47
2021/09/23 04:51:33;;;;;;;2.25;0.60;;;27.20;91.20;;;;;;5127338;28;20076;-50
2021/09/23 04:54:01;;;;;;;2.47;0.60;;;27.10;91.10;;;;;;5126936;28;20027;-49
2021/09/23 04:56:28;;;;;;;2.60;0.50;;;27.10;91.10;;;;;;5127277;28;20078;-48
2021/09/23 04:58:55;;;;;;;3.05;0.55;;;27.10;91.10;;;;;;5127611;28;20030;-50
2021/09/23 05:01:21;;;;;;;4.95;0.73;;;27.10;91.10;;;;;;5126948;28;20059;-49
2021/09/23 05:03:48;;;;;;;6.57;0.50;;;27.00;91.00;;;;;;5127498;28;20024;-50
2021/09/23 05:06:15;;;;;;;2.60;0.70;;;27.00;91.00;;;;;;5126389;28;20047;-49
2021/09/23 05:08:41;;;;;;;7.30;0.50;;;27.10;91.10;;;;;;5127118;28;20238;-49
2021/09/23 05:11:08;;;;;;;3.05;0.50;;;27.10;91.10;;;;;;5126958;28;20027;-47
2021/09/23 05:13:34;;;;;;;7.13;0.60;;;27.10;91.10;;;;;;5127176;28;20090;-47
2021/09/23 05:16:01;;;;;;;1.98;0.52;;;27.10;91.10;;;;;;5126699;28;20031;-49
2021/09/23 05:18:27;;;;;;;6.97;0.85;;;27.10;91.10;;;;;;5127029;28;20094;-51
2021/09/23 05:20:54;;;;;;;4.45;0.88;;;27.00;91.00;;;;;;5126796;28;20016;-48
2021/09/23 05:23:21;;;;;;;5.28;0.60;;;27.10;91.10;;;;;;5126926;28;20055;-50
2021/09/23 05:25:47;;;;;;;1.73;0.50;;;27.10;91.10;;;;;;5126708;28;20024;-48
2021/09/23 05:28:14;;;;;;;6.05;0.80;;;27.10;91.10;;;;;;5126992;28;20263;-49
2021/09/23 05:30:41;;;;;;;5.20;0.60;;;27.10;91.10;;;;;;5126396;28;20023;-49
2021/09/23 05:33:08;;;;;;;3.17;0.60;;;27.10;91.10;;;;;;5126322;28;20074;-51
2021/09/23 05:35:36;;;;;;;3.78;0.40;;;27.00;91.20;;;;;;5126728;28;20023;-48
2021/09/23 05:38:02;;;;;;;5.93;0.98;;;27.00;91.20;;;;;;5126162;28;20027;-49
2021/09/23 05:40:30;;;;;;;3.20;0.63;;;27.00;91.20;;;;;;5126345;28;20020;-46
2021/09/23 05:42:56;;;;;;;2.25;0.60;;;27.00;91.20;;;;;;5126720;28;20053;-54
2021/09/23 05:45:23;;;;;;;2.30;0.52;;;27.00;91.20;;;;;;5126172;28;20362;-47
2021/09/23 05:47:49;;;;;;;2.33;0.52;;;27.00;91.20;;;;;;5126461;28;20031;-47
2021/09/23 05:50:16;;;;;;;3.40;0.82;;;27.00;91.50;;;;;;5126129;28;20015;-47
2021/09/23 05:52:43;;;;;;;5.40;0.70;;;27.00;91.20;;;;;;5126122;28;20028;-48
2021/09/23 05:55:10;;;;;;;4.97;0.50;;;27.00;91.20;;;;;;5126104;28;20023;-49
2021/09/23 05:57:37;;;;;;;4.28;0.55;;;27.00;91.30;;;;;;5126152;28;20030;-49
2021/09/23 06:00:12;;;;;;;1.73;0.40;;;27.00;91.30;;;;;;5126016;28;20016;-47
2021/09/23 06:02:40;;;;;;;5.55;0.65;;;27.00;91.30;;;;;;5126084;28;20024;-52
2021/09/23 06:05:07;;;;;;;3.78;0.55;;;27.00;91.30;;;;;;5125912;28;20018;-48
2021/09/23 06:07:34;;;;;;;5.10;0.73;;;27.00;91.30;;;;;;5125721;28;20102;-47
2021/09/23 06:10:00;;;;;;;5.45;0.65;;;27.00;91.40;;;;;;5125852;28;20019;-51
2021/09/23 06:12:27;;;;;;;3.72;0.60;;;27.00;91.40;;;;;;5125645;28;20102;-55
2021/09/23 06:14:54;;;;;;;12.75;0.65;;;26.90;91.40;;;;;;5125492;28;20238;-50
2021/09/23 06:17:20;;;;;;;3.33;0.55;;;27.00;91.50;;;;;;5124792;28;20027;-52
2021/09/23 06:19:47;;;;;;;5.50;0.60;;;27.00;91.50;;;;;;5125497;28;20023;-50
2021/09/23 06:22:13;;;;;;;2.88;0.60;;;26.90;91.50;;;;;;5125405;28;20023;-47
2021/09/23 06:24:40;;;;;;;4.75;0.60;;;26.90;91.50;;;;;;5125425;28;20027;-47
2021/09/23 06:27:07;;;;;;;2.58;0.60;;;26.90;91.50;;;;;;5125394;28;20023;-50
2021/09/23 06:29:34;;;;;;;6.43;0.60;;;26.90;91.50;;;;;;5125289;28;20338;-48
2021/09/23 06:32:01;;;;;;;6.15;0.73;;;26.90;91.50;;;;;;5125509;28;20113;-49
2021/09/23 06:34:28;;;;;;;2.72;0.50;;;26.90;91.60;;;;;;5125132;28;20044;-51
2021/09/23 06:36:55;;;;;;;4.90;0.40;;;26.90;91.60;;;;;;5125141;28;20043;-46
2021/09/23 06:39:21;;;;;;;4.40;0.63;;;26.90;91.60;;;;;;5125296;28;20023;-49
2021/09/23 06:41:48;;;;;;;8.02;0.60;;;26.90;91.50;;;;;;5125183;28;20023;-48
2021/09/23 06:44:14;;;;;;;9.43;0.70;;;26.90;91.60;;;;;;5125648;28;20031;-52
2021/09/23 06:46:41;;;;;;;7.38;0.73;;;26.90;91.60;;;;;;5125347;28;20024;-49
2021/09/23 06:49:08;;;;;;;9.98;0.90;;;26.90;91.60;;;;;;5125468;28;20196;-51
2021/09/23 06:51:34;;;;;;;4.72;0.90;;;26.90;91.50;;;;;;5125054;28;20324;-55
2021/09/23 06:54:01;;;;;;;2.85;0.60;;;26.90;91.50;;;;;;5125261;28;20262;-48
2021/09/23 06:56:27;;;;;;;2.97;0.60;;;26.90;91.50;;;;;;5124951;28;20022;-49
2021/09/23 06:58:54;;;;;;;9.25;0.70;;;26.90;91.50;;;;;;5125382;28;20028;-51
2021/09/23 07:01:20;;;;;;;3.13;0.60;;;26.90;91.50;;;;;;5124744;28;20397;-52
2021/09/23 07:03:47;;;;;;;4.80;0.70;;;26.90;91.50;;;;;;5125189;28;20099;-47
2021/09/23 07:06:13;;;;;;;8.98;1.13;;;26.90;91.50;;;;;;5124812;28;20020;-47
2021/09/23 07:08:40;;;;;;;6.10;0.70;;;26.80;91.50;;;;;;5124973;28;20097;-47
2021/09/23 07:11:07;;;;;;;5.85;0.75;;;26.80;91.50;;;;;;5124896;28;20380;-46
2021/09/23 07:13:33;;;;;;;5.63;0.70;;;26.80;91.50;;;;;;5124878;28;20259;-45
2021/09/23 07:16:00;;;;;;;3.25;0.47;;;26.80;91.70;;;;;;5124513;28;20056;-48
2021/09/23 07:18:29;;;;;;;3.50;0.52;;;26.80;91.50;;;;;;5124870;28;20020;-46
2021/09/23 07:20:56;;;;;;;2.75;0.68;;;26.80;91.50;;;;;;5124617;28;20019;-46
2021/09/23 07:23:24;;;;;;;3.42;0.60;;;26.80;91.50;;;;;;5124653;28;20027;-48
2021/09/23 07:25:53;;;;;;;5.78;0.80;;;26.80;91.50;;;;;;5124518;28;20023;-46
2021/09/23 07:28:20;;;;;;;6.47;1.33;;;26.80;91.50;;;;;;5124665;28;20024;-45
2021/09/23 07:30:47;;;;;;;7.32;0.90;;;26.70;91.40;;;;;;5124311;28;20019;-52
2021/09/23 07:33:13;;;;;;;6.60;0.50;;;26.80;91.50;;;;;;5124146;28;20114;-46
2021/09/23 07:35:40;;;;;;;8.63;0.70;;;26.70;91.50;;;;;;5124332;28;20023;-46
2021/09/23 07:38:07;;;;;;;4.55;0.70;;;26.70;91.40;;;;;;5124419;28;20019;-47
2021/09/23 07:40:33;;;;;;;8.18;0.80;;;26.70;91.40;;;;;;5124431;28;20193;-46
2021/09/23 07:43:00;;;;;;;3.80;0.60;;;26.70;91.40;;;;;;5124684;28;20212;-45
2021/09/23 07:45:27;;;;;;;4.88;0.68;;;26.70;91.40;;;;;;5124228;28;20035;-48
2021/09/23 07:47:53;;;;;;;4.75;0.80;;;26.70;91.40;;;;;;5124388;28;20334;-48
2021/09/23 07:50:20;;;;;;;5.57;0.90;;;26.70;91.40;;;;;;5124433;28;20320;-50
2021/09/23 07:52:47;;;;;;;5.93;0.68;;;26.70;91.40;;;;;;5124260;28;20189;-47
2021/09/23 07:55:13;;;;;;;7.22;0.77;;;26.70;91.40;;;;;;5124300;28;20024;-44
2021/09/23 07:57:40;;;;;;;5.00;0.80;;;26.70;91.40;;;;;;5124362;28;20024;-44
2021/09/23 08:00:08;;;;;;;4.72;0.60;;;26.70;91.40;;;;;;5124101;28;20016;-47
2021/09/23 08:02:34;;;;;;;6.53;0.90;;;26.70;91.40;;;;;;5124267;28;20016;-45
2021/09/23 08:05:01;;;;;;;10.32;0.88;;;26.70;91.40;;;;;;5124235;28;20316;-55
2021/09/23 08:07:27;;;;;;;3.28;0.65;;;26.60;91.30;;;;;;5123743;28;20024;-48
2021/09/23 08:09:54;;;;;;;3.08;0.70;;;26.60;91.30;;;;;;5124130;28;20055;-44
2021/09/23 08:12:20;;;;;;;7.45;0.80;;;26.60;91.30;;;;;;5124095;28;20094;-52
2021/09/23 08:14:47;;;;;;;6.28;1.00;;;26.60;91.30;;;;;;5124023;28;20204;-46
2021/09/23 08:17:13;;;;;;;5.57;0.90;;;26.60;91.30;;;;;;5124551;28;20032;-46
2021/09/23 08:19:40;;;;;;;6.65;0.70;;;26.70;91.30;;;;;;5123927;28;20069;-48
2021/09/23 08:22:07;;;;;;;5.35;0.80;;;26.60;91.30;;;;;;5124155;28;20024;-48
2021/09/23 08:24:35;;;;;;;5.68;0.85;;;26.60;91.30;;;;;;5123906;28;20064;-50
2021/09/23 08:27:02;;;;;;;5.40;0.85;;;26.60;91.30;;;;;;5123927;28;20024;-46
2021/09/23 08:29:29;;;;;;;10.57;1.00;;;26.60;91.40;;;;;;5123948;28;20024;-45
2021/09/23 08:31:56;;;;;;;6.25;0.70;;;26.60;91.40;;;;;;5123744;28;20320;-50
2021/09/23 08:34:22;;;;;;;7.00;1.02;;;26.60;91.50;;;;;;5123713;28;20051;-52
2021/09/23 08:36:49;;;;;;;5.82;0.65;;;26.60;91.50;;;;;;5123743;28;20027;-50
2021/09/23 08:39:16;;;;;;;7.55;0.73;;;26.60;91.50;;;;;;5123609;28;20023;-46
2021/09/23 08:41:43;;;;;;;7.80;0.88;;;26.60;91.50;;;;;;5126894;28;20011;-45
2021/09/23 08:44:09;;;;;;;6.90;1.05;;;26.60;91.50;;;;;;5127999;28;20032;-49
2021/09/23 08:46:36;;;;;;;5.90;0.80;;;26.60;91.50;;;;;;5127625;28;20211;-46
2021/09/23 08:49:05;;;;;;;6.07;0.82;;;26.60;91.50;;;;;;5127829;28;20031;-49
2021/09/23 08:51:31;;;;;;;6.15;0.65;;;26.60;91.40;;;;;;5127255;28;20047;-54
2021/09/23 08:53:58;;;;;;;11.63;1.58;;;26.60;91.50;;;;;;5127016;28;20027;-46
2021/09/23 08:56:24;;;;;;;5.82;0.70;;;26.60;91.60;;;;;;5127532;28;20204;-52
2021/09/23 08:58:52;;;;;;;7.45;1.15;;;26.50;91.50;;;;;;5127540;28;20028;-53
2021/09/23 09:01:21;;;;;;;6.63;1.00;;;26.50;91.50;;;;;;5127140;28;20015;-51
2021/09/23 09:03:58;;;;;;;6.22;0.77;;;26.50;91.50;;;;;;5127421;28;20047;-49
2021/09/23 09:06:24;;;;;;;7.18;0.75;;;26.50;91.50;;;;;;5126854;28;20080;-50
2021/09/23 09:08:51;;;;;;;6.97;0.73;;;26.50;91.60;;;;;;5127456;28;20023;-47
2021/09/23 09:11:17;;;;;;;4.78;0.63;;;26.50;91.60;;;;;;5127263;28;20095;-52
2021/09/23 09:13:46;;;;;;;5.57;0.90;;;26.50;91.60;;;;;;5127098;28;20027;-50
2021/09/23 09:16:16;;;;;;;3.42;0.60;;;26.50;91.60;;;;;;5127043;28;20019;-57
2021/09/23 09:18:44;;;;;;;4.47;0.60;;;26.50;91.50;;;;;;5127178;28;20292;-53
2021/09/23 09:21:20;;;;;;;4.70;0.73;;;26.50;91.50;;;;;;5126591;28;20016;-49
2021/09/23 09:23:54;;;;;;;3.80;0.70;;;26.40;91.50;;;;;;5127139;28;20046;-48
2021/09/23 09:26:32;;;;;;;12.20;0.95;;;26.50;91.50;;;;;;5126677;28;20020;-45
2021/09/23 09:29:01;;;;;;;4.97;0.85;;;26.40;91.50;;;;;;5127051;28;20028;-51
2021/09/23 09:31:28;;;;;;;6.78;0.80;;;26.40;91.50;;;;;;5126612;28;20041;-48
2021/09/23 09:34:01;;;;;;;6.13;0.60;;;26.40;91.50;;;;;;5126225;28;20055;-55
2021/09/23 09:36:36;;;;;;;5.25;1.08;;;26.40;91.50;;;;;;5126480;28;20020;-46
2021/09/23 09:39:18;;;;;;;7.88;0.80;;;26.40;91.50;;;;;;5126825;28;20024;-50
2021/09/23 09:41:48;;;;;;;5.30;0.57;;;26.40;91.50;;;;;;5126294;28;20011;-50
2021/09/23 09:44:17;;;;;;;4.85;0.88;;;26.40;91.40;;;;;;5126788;28;20023;-51
2021/09/23 09:46:51;;;;;;;6.47;0.88;;;26.40;91.40;;;;;;5126342;28;20020;-55
2021/09/23 09:49:21;;;;;;;7.00;0.73;;;26.40;91.40;;;;;;5126125;28;20028;-52
2021/09/23 09:51:54;;;;;;;6.80;0.90;;;26.40;91.30;;;;;;5125960;28;20023;-55
2021/09/23 09:54:21;;;;;;;3.72;0.77;;;26.40;91.30;;;;;;5125995;28;20046;-49
2021/09/23 09:56:57;;;;;;;4.40;0.60;;;26.40;91.30;;;;;;5125989;28;20193;-56
2021/09/23 09:59:24;;;;;;;7.03;0.85;;;26.30;91.30;;;;;;5125970;28;20024;-48
2021/09/23 10:01:54;;;;;;;10.73;1.30;;;26.40;91.30;;;;;;5125830;28;20015;-47
2021/09/23 10:04:22;;;;;;;18.38;1.60;;;26.40;91.20;;;;;;5126026;28;20316;-52
2021/09/23 10:06:49;;;;;;;11.63;1.42;;;26.30;91.20;;;;;;5125692;28;20023;-49
2021/09/23 10:09:17;;;;;;;9.02;1.40;;;26.40;91.20;;;;;;5125719;28;20031;-52
2021/09/23 10:11:46;;;;;;;15.63;1.55;;;26.30;91.20;;;;;;5125683;28;20026;-48
2021/09/23 10:14:15;;;;;;;9.80;1.48;;;26.30;91.20;;;;;;5126292;28;20090;-52
2021/09/23 10:16:42;;;;;;;11.75;1.38;;;26.30;91.20;;;;;;5125741;28;20024;-49
2021/09/23 10:19:09;;;;;;;8.25;1.30;;;26.30;91.30;;;;;;5125987;28;20026;-51
2021/09/23 10:21:40;;;;;;;9.40;1.13;;;26.30;91.30;;;;;;5125584;28;20016;-51
2021/09/23 10:24:08;;;;;;;14.32;1.45;;;26.30;91.20;;;;;;5125833;28;20087;-50
2021/09/23 10:26:39;;;;;;;7.63;1.45;;;26.30;91.30;;;;;;5125334;28;20026;-49
2021/09/23 10:29:07;;;;;;;18.15;2.35;;;26.20;91.30;;;;;;5125810;28;20031;-49
2021/09/23 10:31:35;;;;;;;23.50;1.77;;;26.30;91.30;;;;;;5125325;28;20020;-56
2021/09/23 10:34:06;;;;;;;17.75;1.63;;;26.30;91.30;;;;;;5125146;28;20107;-46
2021/09/23 10:36:34;;;;;;;16.17;1.80;;;26.30;91.20;;;;;;5125206;28;20031;-47
2021/09/23 10:39:05;;;;;;;12.93;1.20;;;26.30;91.20;;;;;;5125042;28;20338;-47
2021/09/23 10:41:36;;;;;;;10.07;1.17;;;26.30;91.30;;;;;;5125230;28;20081;-48
2021/09/23 10:44:04;;;;;;;12.90;1.55;;;26.30;91.30;;;;;;5125769;28;20020;-48
2021/09/23 10:46:32;;;;;;;13.45;1.60;;;26.30;91.40;;;;;;5124978;28;20373;-52
2021/09/23 10:49:01;;;;;;;16.65;2.20;;;26.20;91.40;;;;;;5125581;28;20027;-47
2021/09/23 10:51:32;;;;;;;14.73;2.08;;;26.20;91.40;;;;;;5125054;28;20231;-48
2021/09/23 10:54:00;;;;;;;9.20;2.40;;;26.30;91.50;;;;;;5125247;28;20031;-45
2021/09/23 10:56:29;;;;;;;6.47;2.08;;;26.20;91.50;;;;;;5124979;28;20061;-46
2021/09/23 10:58:57;;;;;;;14.02;2.50;;;26.30;91.50;;;;;;5125344;28;20062;-50
2021/09/23 11:01:29;;;;;;;11.20;2.90;;;26.30;91.50;;;;;;5124782;28;20177;-46
2021/09/23 11:03:58;;;;;;;15.20;3.38;;;26.30;91.50;;;;;;5124798;28;20347;-50
2021/09/23 11:06:39;;;;;;;17.13;3.05;;;26.30;91.50;;;;;;5124660;28;20242;-52
2021/09/23 11:09:20;;;;;;;16.60;3.13;;;26.30;91.60;;;;;;5125235;28;20031;-54
2021/09/23 11:11:51;;;;;;;14.40;2.97;;;26.30;91.60;;;;;;5124544;28;20019;-49
2021/09/23 11:14:19;;;;;;;16.75;2.78;;;26.30;91.60;;;;;;5124788;28;20028;-47
2021/09/23 11:16:58;;;;;;;10.60;2.10;;;26.30;91.70;;;;;;5124705;28;20189;-50
2021/09/23 11:19:25;;;;;;;6.88;2.10;;;26.30;91.60;;;;;;5124518;28;20062;-48
2021/09/23 11:21:54;;;;;;;22.45;3.60;;;26.30;91.70;;;;;;5124400;28;20260;-50
2021/09/23 11:24:23;;;;;;;21.40;3.10;;;26.30;91.70;;;;;;5116823;28;20023;-50
2021/09/23 11:26:50;;;;;;;15.00;2.63;;;26.30;91.70;;;;;;5124459;28;20019;-47
2021/09/23 11:29:18;;;;;;;17.70;2.92;;;26.30;91.70;;;;;;5124556;28;20023;-46
2021/09/23 11:31:48;;;;;;;14.35;2.10;;;26.30;91.60;;;;;;5124404;28;20330;-47
2021/09/23 11:34:36;;;;;;;11.70;1.95;;;26.30;91.70;;;;;;5124440;28;20046;-51
2021/09/23 11:37:04;;;;;;;11.35;2.17;;;26.30;91.70;;;;;;5124174;28;20076;-48
2021/09/23 11:39:31;;;;;;;19.35;2.60;;;26.40;91.80;;;;;;5124370;28;20020;-50
2021/09/23 11:42:12;;;;;;;10.77;2.35;;;26.40;91.80;;;;;;5124121;28;20249;-49
2021/09/23 11:44:40;;;;;;;13.30;2.40;;;26.40;91.80;;;;;;5124216;28;20027;-47
2021/09/23 11:47:17;;;;;;;15.80;3.47;;;26.40;91.80;;;;;;5124373;28;20012;-47
2021/09/23 11:49:49;;;;;;;9.52;3.65;;;26.40;91.80;;;;;;5124132;28;20079;-46
2021/09/23 11:52:16;;;;;;;13.10;2.75;;;26.50;91.80;;;;;;5124260;28;20034;-47
2021/09/23 11:54:43;;;;;;;15.55;3.13;;;26.40;91.80;;;;;;5124386;28;20051;-49
2021/09/23 11:57:24;;;;;;;9.93;3.30;;;26.50;91.80;;;;;;5123971;28;20290;-51
2021/09/23 11:59:55;;;;;;;10.60;3.57;;;26.40;91.80;;;;;;5124351;28;20015;-47
2021/09/23 12:02:22;;;;;;;11.85;4.25;;;26.40;91.70;;;;;;5124047;28;20341;-49
2021/09/23 12:04:56;;;;;;;14.27;4.00;;;26.40;91.70;;;;;;5124277;28;20312;-51
2021/09/23 12:07:23;;;;;;;11.75;3.75;;;26.50;91.80;;;;;;5124024;28;20027;-54
2021/09/23 12:10:11;;;;;;;15.23;3.58;;;26.50;91.90;;;;;;5124102;28;20020;-48
2021/09/23 12:12:38;;;;;;;9.13;3.50;;;26.50;91.90;;;;;;5124049;28;20020;-49
2021/09/23 12:15:05;;;;;;;11.70;3.90;;;26.50;91.80;;;;;;5124307;28;20028;-50
2021/09/23 12:17:31;;;;;;;36.95;5.65;;;26.50;91.90;;;;;;5128096;28;20027;-52
2021/09/23 12:20:02;;;;;;;34.42;4.53;;;26.50;92.10;;;;;;5127983;28;20016;-47
2021/09/23 12:22:36;;;;;;;24.95;4.80;;;26.50;91.90;;;;;;5128036;28;20024;-50
2021/09/23 12:25:15;;;;;;;14.43;4.30;;;26.50;91.90;;;;;;5109702;28;20032;-50
2021/09/23 12:27:42;;;;;;;19.20;4.22;;;26.60;91.90;;;;;;5127960;28;20020;-51
2021/09/23 12:30:10;;;;;;;13.98;3.88;;;26.60;91.80;;;;;;5127810;28;20019;-50
2021/09/23 12:32:39;;;;;;;19.63;3.88;;;26.60;91.90;;;;;;5127575;28;20023;-51
2021/09/23 12:35:19;;;;;;;18.52;3.88;;;26.60;91.90;;;;;;5127763;28;20020;-50
2021/09/23 12:37:47;;;;;;;20.65;4.18;;;26.60;92.00;;;;;;5127858;28;20050;-50
2021/09/23 12:40:14;;;;;;;32.72;4.35;;;26.60;92.10;;;;;;5127534;28;20046;-47
2021/09/23 12:42:41;;;;;;;28.55;4.25;;;26.60;92.00;;;;;;5127659;28;20027;-51
2021/09/23 12:45:22;;;;;;;24.80;4.20;;;26.60;92.10;;;;;;5127983;28;20078;-61
2021/09/23 12:47:51;;;;;;;16.88;3.67;;;26.60;91.90;;;;;;5127818;28;20065;-52